Pine Grove, New York
Current Conditions -  °F | °C
As of 5:58 PM on Thursday 18 Dec 2014 (Local Time) from KGTB Reporting Station
Overcast Overcast  
Wind Chill: -6°   Ceiling: 1400
Heat Index: -3°   Visibility: 10mi
Dew Point: -6°   Wind: 6mph
Humidity: 78%   Direction: NA
Pressure: 29.99"   Gusts: NA
Location:  43.7232°N, 75.2497°W
Report Text: KGTB 182258Z AUTO VRB05KT 10SM OVC014 M02/M06 A2999 RMK AO2 SLP164 T10251059
Loading
Personal Weather Stations






























Interactive Weather Map New forecast layout! Learn more

10-Day Weather Forecast

Advertisements
Track Severe Weather on mobile